Time;durP1;ratioP1;P1;durP2;ratioP2;P2;SDS_P1;SDS_P2;PMS_P1;PMS_P2;Temp;Humidity;BMP_temperature;BMP_pressure;BME280_temperature;BME280_humidity;BME280_pressure;Samples;Min_cycle;Max_cycle;Signal;HPM_P1;HPM_P2
2023/03/15 00:00:30;;;;;;;1.40;1.30;;;;;;;2.78;100.00;98316.28;4117939;28;20229;-49
2023/03/15 00:02:32;;;;;;;3.88;1.30;;;;;;;2.61;100.00;98325.81;4124476;28;20328;-48
2023/03/15 00:04:35;;;;;;;1.38;1.02;;;;;;;2.72;100.00;98327.06;4117868;28;20654;-48
2023/03/15 00:06:37;;;;;;;1.58;1.33;;;;;;;2.46;100.00;98330.56;4120118;28;20234;-49
2023/03/15 00:08:39;;;;;;;1.95;1.20;;;;;;;2.50;100.00;98334.53;4136743;28;20304;-49
2023/03/15 00:10:42;;;;;;;1.17;1.05;;;;;;;2.50;100.00;98339.94;4120766;28;20233;-49
2023/03/15 00:12:43;;;;;;;2.28;1.40;;;;;;;2.63;100.00;98331.00;4108950;28;20254;-48
2023/03/15 00:14:45;;;;;;;1.45;1.35;;;;;;;2.65;100.00;98343.28;4115589;28;20241;-49
2023/03/15 00:16:47;;;;;;;1.73;1.63;;;;;;;2.63;100.00;98345.34;4127803;28;20250;-48
2023/03/15 00:18:49;;;;;;;1.83;1.73;;;;;;;2.43;100.00;98349.88;4104395;28;20326;-49
2023/03/15 00:20:51;;;;;;;2.42;1.60;;;;;;;2.47;100.00;98355.69;4125042;28;20237;-50
2023/03/15 00:22:52;;;;;;;1.90;1.80;;;;;;;2.61;100.00;98355.50;4119540;28;20313;-48
2023/03/15 00:24:54;;;;;;;2.03;1.40;;;;;;;2.48;100.00;98355.47;4125445;28;20217;-49
2023/03/15 00:26:56;;;;;;;2.08;1.45;;;;;;;2.35;100.00;98355.44;4120431;28;20206;-49
2023/03/15 00:28:57;;;;;;;2.83;1.58;;;;;;;2.38;100.00;98357.75;4124917;28;20241;-48
2023/03/15 00:31:19;;;;;;;1.25;1.15;;;;;;;2.37;100.00;98358.78;4118910;28;20624;-49
2023/03/15 00:33:21;;;;;;;3.42;1.67;;;;;;;2.22;100.00;98358.06;4118161;28;20229;-49
2023/03/15 00:35:23;;;;;;;1.40;1.27;;;;;;;2.28;100.00;98362.66;4125700;28;20276;-50
2023/03/15 00:37:25;;;;;;;3.20;1.45;;;;;;;2.35;100.00;98363.53;4133206;28;20214;-50
2023/03/15 00:39:27;;;;;;;2.75;1.77;;;;;;;2.46;100.00;98359.41;4124005;28;20297;-51
2023/03/15 00:41:28;;;;;;;1.65;1.38;;;;;;;2.27;100.00;98362.91;4118780;28;20666;-50
2023/03/15 00:43:30;;;;;;;1.45;1.35;;;;;;;2.24;100.00;98366.81;4124811;28;20259;-49
2023/03/15 00:45:31;;;;;;;1.80;1.50;;;;;;;2.16;100.00;98366.16;4132567;28;20213;-50
2023/03/15 00:47:33;;;;;;;3.13;1.63;;;;;;;2.39;100.00;98370.19;4117074;28;20203;-51
2023/03/15 00:49:35;;;;;;;3.20;1.48;;;;;;;2.28;100.00;98362.66;4119558;28;20265;-49
2023/03/15 00:51:36;;;;;;;3.97;1.67;;;;;;;2.31;100.00;98364.97;4121290;28;20214;-49
2023/03/15 00:53:41;;;;;;;1.85;1.58;;;;;;;2.26;100.00;98359.34;4121685;28;20309;-48
2023/03/15 00:55:42;;;;;;;7.15;2.17;;;;;;;2.23;100.00;98367.88;4140076;28;20602;-50
2023/03/15 00:57:45;;;;;;;1.65;1.55;;;;;;;2.17;100.00;98365.97;4125804;28;20320;-50
2023/03/15 00:59:46;;;;;;;2.05;1.80;;;;;;;2.13;100.00;98367.38;4125659;28;20631;-49
2023/03/15 01:01:48;;;;;;;3.35;1.42;;;;;;;2.08;100.00;98359.06;4123637;28;20373;-50
2023/03/15 01:03:50;;;;;;;2.90;1.73;;;;;;;2.07;100.00;98365.50;4140268;28;20208;-49
2023/03/15 01:05:52;;;;;;;6.50;2.13;;;;;;;2.11;100.00;98364.06;4119800;28;20214;-50
2023/03/15 01:07:53;;;;;;;2.45;2.03;;;;;;;1.84;100.00;98367.66;4118693;28;20599;-50
2023/03/15 01:09:55;;;;;;;2.92;1.80;;;;;;;1.80;100.00;98363.69;4122616;28;20248;-49
2023/03/15 01:11:57;;;;;;;2.65;1.90;;;;;;;1.79;100.00;98353.94;4121227;28;20851;-49
2023/03/15 01:13:59;;;;;;;3.45;2.08;;;;;;;1.92;100.00;98350.47;4125667;28;20642;-49
2023/03/15 01:16:01;;;;;;;1.90;1.58;;;;;;;1.90;100.00;98353.38;4130346;28;20297;-49
2023/03/15 01:18:03;;;;;;;4.25;1.70;;;;;;;1.92;100.00;98356.69;4137732;28;20205;-49
2023/03/15 01:20:06;;;;;;;2.60;1.75;;;;;;;1.78;100.00;98360.38;4139294;28;20304;-49
2023/03/15 01:22:07;;;;;;;3.15;1.77;;;;;;;1.68;100.00;98353.66;4123220;28;20312;-49
2023/03/15 01:24:13;;;;;;;2.22;1.63;;;;;;;1.85;100.00;98361.22;4132048;28;20296;-49
2023/03/15 01:26:16;;;;;;;3.38;2.05;;;;;;;1.81;100.00;98362.66;4125701;28;20719;-49
2023/03/15 01:28:18;;;;;;;8.65;3.25;;;;;;;1.91;100.00;98368.53;4123260;28;20293;-49
2023/03/15 01:30:20;;;;;;;4.28;1.67;;;;;;;2.00;100.00;98370.03;4123783;28;20249;-50
2023/03/15 01:32:21;;;;;;;3.40;2.75;;;;;;;1.96;100.00;98376.03;4113104;28;20234;-49
2023/03/15 01:34:23;;;;;;;7.40;2.22;;;;;;;1.86;100.00;98368.28;4120753;28;20264;-50
2023/03/15 01:36:28;;;;;;;2.17;1.88;;;;;;;2.01;100.00;98376.25;4123675;28;20670;-49
2023/03/15 01:38:30;;;;;;;3.78;2.53;;;;;;;1.97;100.00;98370.44;4125165;28;20664;-50
2023/03/15 01:40:32;;;;;;;3.17;2.00;;;;;;;2.08;100.00;98377.94;4125453;28;20694;-49
2023/03/15 01:42:50;;;;;;;2.72;2.13;;;;;;;2.01;100.00;98395.97;4123847;28;20240;-50
2023/03/15 01:44:56;;;;;;;4.93;1.98;;;;;;;2.02;100.00;98394.94;4139026;28;20434;-50
2023/03/15 01:46:58;;;;;;;9.30;2.33;;;;;;;2.08;100.00;98399.53;4141493;28;20713;-50
2023/03/15 01:49:21;;;;;;;2.33;2.13;;;;;;;2.05;100.00;98409.88;4138260;28;20223;-50
2023/03/15 01:51:30;;;;;;;4.60;2.40;;;;;;;2.10;100.00;98416.38;4142217;28;20205;-50
2023/03/15 01:53:32;;;;;;;2.08;1.85;;;;;;;2.13;100.00;98407.88;4123944;28;20234;-49
2023/03/15 01:55:34;;;;;;;3.53;1.90;;;;;;;2.04;100.00;98411.78;4122692;28;20207;-50
2023/03/15 01:57:48;;;;;;;2.22;1.63;;;;;;;2.03;100.00;98417.34;4124313;28;20241;-51
2023/03/15 01:59:53;;;;;;;4.97;1.92;;;;;;;2.00;100.00;98429.38;4119267;28;20655;-50
2023/03/15 02:01:55;;;;;;;7.90;1.85;;;;;;;2.05;100.00;98421.53;4123402;28;20242;-49
2023/03/15 02:04:06;;;;;;;3.53;2.00;;;;;;;1.99;100.00;98427.72;4122243;28;20202;-49
2023/03/15 02:06:08;;;;;;;3.17;2.13;;;;;;;2.08;100.00;98431.91;4119998;28;20221;-49
2023/03/15 02:08:11;;;;;;;2.90;2.42;;;;;;;1.89;100.00;98437.19;4119210;28;20281;-50
2023/03/15 02:10:14;;;;;;;2.28;1.95;;;;;;;1.88;100.00;98430.94;4127005;28;20644;-49
2023/03/15 02:12:16;;;;;;;4.07;2.78;;;;;;;1.83;100.00;98433.44;4125928;28;20253;-50
2023/03/15 02:14:18;;;;;;;3.13;2.30;;;;;;;1.93;100.00;98433.91;4118128;28;20654;-49
2023/03/15 02:16:21;;;;;;;3.13;2.65;;;;;;;1.98;100.00;98442.25;4127766;28;20237;-49
2023/03/15 02:18:23;;;;;;;3.28;3.08;;;;;;;1.81;100.00;98435.47;4128362;28;20619;-50
2023/03/15 02:20:44;;;;;;;5.43;2.75;;;;;;;1.71;100.00;98439.53;4138154;28;20706;-49
2023/03/15 02:22:51;;;;;;;5.43;2.85;;;;;;;1.56;100.00;98436.13;4136167;28;20695;-49
2023/03/15 02:25:03;;;;;;;4.95;2.25;;;;;;;1.49;100.00;98440.63;4128337;28;20296;-50
2023/03/15 02:27:05;;;;;;;3.78;3.35;;;;;;;1.55;100.00;98439.84;4120136;28;20676;-49
2023/03/15 02:29:06;;;;;;;5.43;3.15;;;;;;;1.46;100.00;98441.00;4126756;28;20206;-49
2023/03/15 02:31:09;;;;;;;4.60;3.10;;;;;;;1.53;100.00;98441.91;4125997;28;20213;-50
2023/03/15 02:33:25;;;;;;;9.35;3.83;;;;;;;1.51;100.00;98439.41;4120460;28;20333;-51
2023/03/15 02:35:31;;;;;;;6.28;3.50;;;;;;;1.56;100.00;98447.75;4137247;28;20237;-49
2023/03/15 02:37:33;;;;;;;5.35;3.17;;;;;;;1.53;100.00;98448.13;4128007;28;20352;-49
2023/03/15 02:39:34;;;;;;;6.03;4.72;;;;;;;1.60;100.00;98450.88;4136639;28;20382;-50
2023/03/15 02:41:41;;;;;;;4.80;3.28;;;;;;;1.58;100.00;98456.47;4109254;28;20306;-50
2023/03/15 02:43:43;;;;;;;7.97;3.25;;;;;;;1.60;100.00;98465.19;4128148;28;20301;-49
2023/03/15 02:45:45;;;;;;;9.90;3.75;;;;;;;1.61;100.00;98461.47;4134673;28;20229;-49
2023/03/15 02:47:48;;;;;;;9.02;3.85;;;;;;;1.63;100.00;98454.03;4127476;28;20201;-50
2023/03/15 02:49:51;;;;;;;6.00;4.57;;;;;;;1.65;100.00;98457.34;4127716;28;20206;-50
2023/03/15 02:51:53;;;;;;;5.07;2.90;;;;;;;1.64;100.00;98466.47;4119423;28;20253;-50
2023/03/15 02:53:54;;;;;;;3.42;3.22;;;;;;;1.64;100.00;98455.69;4133568;28;20212;-50
2023/03/15 02:55:56;;;;;;;4.32;3.58;;;;;;;1.65;100.00;98462.75;4124446;28;20202;-50
2023/03/15 02:57:59;;;;;;;4.18;3.20;;;;;;;1.77;100.00;98461.19;4109859;28;20337;-50
2023/03/15 03:00:13;;;;;;;4.78;3.72;;;;;;;1.69;100.00;98458.59;4102818;28;20298;-50
2023/03/15 03:02:14;;;;;;;6.72;4.38;;;;;;;1.67;100.00;98466.06;4117770;28;20237;-49
2023/03/15 03:04:16;;;;;;;3.60;2.65;;;;;;;1.65;100.00;98462.75;4121520;28;20215;-49
2023/03/15 03:06:18;;;;;;;4.47;4.00;;;;;;;1.76;100.00;98464.06;4120708;28;20246;-50
2023/03/15 03:08:19;;;;;;;4.55;3.58;;;;;;;1.78;100.00;98462.84;4127675;28;20297;-50
2023/03/15 03:10:21;;;;;;;7.90;3.97;;;;;;;1.77;100.00;98463.88;4118654;28;20305;-52
2023/03/15 03:12:23;;;;;;;12.82;3.67;;;;;;;1.59;100.00;98459.97;4098825;28;20234;-50
2023/03/15 03:14:25;;;;;;;4.13;3.80;;;;;;;1.68;100.00;98458.84;4133323;28;20264;-49
2023/03/15 03:16:27;;;;;;;3.35;3.08;;;;;;;1.62;100.00;98465.81;4119564;28;20286;-50
2023/03/15 03:18:29;;;;;;;6.80;3.53;;;;;;;1.58;100.00;98472.66;4135488;28;20317;-50
2023/03/15 03:20:32;;;;;;;4.68;4.28;;;;;;;1.63;100.00;98470.22;4120677;28;20329;-52
2023/03/15 03:22:34;;;;;;;5.43;4.50;;;;;;;1.62;100.00;98468.50;4120799;28;20354;-50
2023/03/15 03:24:36;;;;;;;5.07;4.57;;;;;;;1.62;100.00;98471.22;4135781;28;20292;-50
2023/03/15 03:26:38;;;;;;;9.93;5.03;;;;;;;1.50;100.00;98480.88;4120151;28;20291;-50
2023/03/15 03:28:40;;;;;;;5.60;5.00;;;;;;;1.42;100.00;98489.06;4134608;28;20287;-50
2023/03/15 03:30:42;;;;;;;7.50;5.25;;;;;;;1.28;100.00;98484.59;4108506;28;20221;-50
2023/03/15 03:32:44;;;;;;;5.80;5.22;;;;;;;1.50;100.00;98486.28;4109661;28;20234;-50
2023/03/15 03:34:47;;;;;;;10.25;6.18;;;;;;;1.38;100.00;98489.66;4119413;28;20202;-49
2023/03/15 03:36:49;;;;;;;11.85;5.82;;;;;;;1.50;100.00;98497.06;4133884;28;20205;-50
2023/03/15 03:38:52;;;;;;;6.13;4.80;;;;;;;1.29;100.00;98488.94;4126084;28;20216;-50
2023/03/15 03:40:54;;;;;;;7.35;5.50;;;;;;;1.37;100.00;98486.16;4124436;28;20691;-50
2023/03/15 03:42:58;;;;;;;6.95;5.50;;;;;;;1.38;100.00;98490.50;4127663;28;20234;-50
2023/03/15 03:45:00;;;;;;;5.07;4.63;;;;;;;1.34;100.00;98491.91;4118628;28;20250;-50
2023/03/15 03:47:02;;;;;;;10.25;5.80;;;;;;;1.31;100.00;98486.91;4120415;28;20501;-50
2023/03/15 03:49:04;;;;;;;12.93;5.30;;;;;;;1.29;100.00;98488.94;4120660;28;20210;-49
2023/03/15 03:51:08;;;;;;;11.98;6.53;;;;;;;1.38;100.00;98487.81;4121443;28;20213;-50
2023/03/15 03:53:10;;;;;;;5.78;5.25;;;;;;;1.25;100.00;98495.75;4126448;28;20647;-50
2023/03/15 03:55:12;;;;;;;7.63;5.18;;;;;;;1.34;100.00;98491.91;4126862;28;20289;-50
2023/03/15 03:57:14;;;;;;;11.98;6.35;;;;;;;1.04;100.00;98490.38;4135723;28;20639;-50
2023/03/15 03:59:15;;;;;;;8.65;6.05;;;;;;;1.24;100.00;98507.56;4119180;28;20295;-50
2023/03/15 04:01:17;;;;;;;9.73;6.65;;;;;;;1.24;100.00;98498.63;4135262;28;21375;-50
2023/03/15 04:03:19;;;;;;;10.35;6.15;;;;;;;1.08;100.00;98502.41;4117479;28;20249;-50
2023/03/15 04:05:21;;;;;;;9.20;5.18;;;;;;;1.22;100.00;98504.22;4135193;28;20297;-50
2023/03/15 04:07:23;;;;;;;9.30;6.25;;;;;;;1.18;100.00;98502.94;4119685;28;20309;-50
2023/03/15 04:09:24;;;;;;;7.60;6.03;;;;;;;1.29;100.00;98507.81;4121971;28;20220;-50
2023/03/15 04:11:26;;;;;;;12.73;5.22;;;;;;;1.35;100.00;98509.75;4126364;28;20214;-50
2023/03/15 04:13:28;;;;;;;12.10;6.28;;;;;;;1.19;100.00;98518.09;4118565;28;20293;-49
2023/03/15 04:15:30;;;;;;;5.70;4.32;;;;;;;1.22;100.00;98515.00;4118490;28;20312;-50
2023/03/15 04:17:32;;;;;;;8.52;6.18;;;;;;;1.21;100.00;98517.91;4124900;28;20314;-51
2023/03/15 04:19:33;;;;;;;17.65;6.97;;;;;;;1.20;100.00;98521.63;4132464;28;20383;-50
2023/03/15 04:21:35;;;;;;;7.55;6.15;;;;;;;1.13;100.00;98518.84;4133730;28;20308;-50
2023/03/15 04:23:37;;;;;;;7.22;6.53;;;;;;;1.12;100.00;98525.25;4124864;28;20617;-50
2023/03/15 04:25:39;;;;;;;11.98;5.68;;;;;;;1.20;100.00;98527.84;4136032;28;20296;-50
2023/03/15 04:27:41;;;;;;;6.82;5.47;;;;;;;1.23;100.00;98532.84;4118604;28;20253;-50
2023/03/15 04:29:43;;;;;;;6.82;6.22;;;;;;;1.32;100.00;98529.00;4126809;28;20290;-50
2023/03/15 04:31:44;;;;;;;10.95;5.60;;;;;;;1.32;100.00;98531.69;4135887;28;20205;-50
2023/03/15 04:33:46;;;;;;;6.45;5.40;;;;;;;1.32;100.00;98537.09;4117802;28;20862;-49
2023/03/15 04:35:48;;;;;;;13.70;5.93;;;;;;;1.32;100.00;98534.41;4120871;28;20329;-49
2023/03/15 04:37:50;;;;;;;6.88;6.18;;;;;;;1.40;100.00;98523.47;4117111;28;20276;-49
2023/03/15 04:39:52;;;;;;;8.18;6.72;;;;;;;1.32;100.00;98537.09;4116732;28;20302;-50
2023/03/15 04:41:54;;;;;;;15.50;5.90;;;;;;;1.50;100.00;98537.50;4115955;28;20242;-50
2023/03/15 04:43:55;;;;;;;6.43;5.38;;;;;;;1.29;100.00;98548.22;4118960;28;20230;-51
2023/03/15 04:45:57;;;;;;;15.02;6.65;;;;;;;1.24;100.00;98534.53;4118800;28;20598;-49
2023/03/15 04:48:00;;;;;;;8.32;6.85;;;;;;;1.29;100.00;98536.63;4109495;28;20613;-50
2023/03/15 04:50:02;;;;;;;6.60;5.78;;;;;;;1.29;100.00;98534.75;4118938;28;20293;-50
2023/03/15 04:52:04;;;;;;;7.47;6.78;;;;;;;1.25;100.00;98538.88;4119759;28;20324;-50
2023/03/15 04:54:05;;;;;;;12.35;5.90;;;;;;;1.32;100.00;98537.09;4123383;28;20213;-50
2023/03/15 04:56:07;;;;;;;10.25;6.85;;;;;;;1.18;100.00;98537.97;4119026;28;20218;-50
2023/03/15 04:58:08;;;;;;;13.90;6.03;;;;;;;1.16;100.00;98536.50;4125262;28;20230;-49
2023/03/15 05:00:11;;;;;;;7.95;6.70;;;;;;;1.19;100.00;98547.72;4124219;28;20676;-50
2023/03/15 05:02:13;;;;;;;7.28;6.57;;;;;;;1.27;100.00;98547.59;4123609;28;20234;-49
2023/03/15 05:04:15;;;;;;;8.52;5.47;;;;;;;1.14;100.00;98542.06;4123220;28;20758;-50
2023/03/15 05:06:16;;;;;;;8.35;6.88;;;;;;;1.07;100.00;98543.03;4125575;28;20218;-49
2023/03/15 05:08:18;;;;;;;13.10;8.10;;;;;;;1.23;100.00;98549.03;4103248;28;20301;-49
2023/03/15 05:10:20;;;;;;;8.48;7.35;;;;;;;1.28;100.00;98546.56;4119014;28;20218;-50
2023/03/15 05:12:23;;;;;;;8.82;6.40;;;;;;;1.31;100.00;98551.59;4124016;28;20277;-50
2023/03/15 05:14:25;;;;;;;14.38;6.53;;;;;;;1.39;100.00;98559.56;4120951;28;20302;-49
2023/03/15 05:16:27;;;;;;;9.85;7.22;;;;;;;1.31;100.00;98543.50;4106702;28;20751;-49
2023/03/15 05:18:28;;;;;;;15.25;7.03;;;;;;;1.00;100.00;98534.84;4121070;28;20364;-51
2023/03/15 05:20:30;;;;;;;14.00;7.18;;;;;;;1.06;100.00;98536.78;4123175;28;20731;-49
2023/03/15 05:22:32;;;;;;;7.00;5.95;;;;;;;1.03;100.00;98534.50;4121212;28;20291;-49
2023/03/15 05:24:34;;;;;;;7.57;6.18;;;;;;;1.04;100.00;98532.63;4106931;28;20849;-50
2023/03/15 05:26:35;;;;;;;8.20;7.22;;;;;;;0.91;100.00;98545.94;4118453;28;20932;-49
2023/03/15 05:28:37;;;;;;;16.20;6.45;;;;;;;0.96;100.00;98547.06;4116264;28;20211;-49
2023/03/15 05:30:39;;;;;;;7.90;7.20;;;;;;;0.88;100.00;98549.84;4114539;28;20297;-49
2023/03/15 05:32:43;;;;;;;7.13;6.47;;;;;;;0.99;100.00;98556.59;4120005;28;20226;-49
2023/03/15 05:34:45;;;;;;;8.30;6.63;;;;;;;0.96;100.00;98563.22;4117791;28;20572;-49
2023/03/15 05:36:47;;;;;;;15.95;7.07;;;;;;;0.87;100.00;98558.13;4118538;28;20780;-49
2023/03/15 05:38:48;;;;;;;7.40;6.85;;;;;;;1.00;100.00;98559.09;4119476;28;20325;-51
2023/03/15 05:40:50;;;;;;;11.02;6.13;;;;;;;1.03;100.00;98557.91;4105626;28;20665;-49
2023/03/15 05:42:52;;;;;;;11.33;7.30;;;;;;;0.89;100.00;98546.09;4136981;28;20771;-50
2023/03/15 05:44:54;;;;;;;7.15;6.45;;;;;;;0.92;100.00;98556.53;4127195;28;20316;-50
2023/03/15 05:46:55;;;;;;;17.95;6.35;;;;;;;0.97;100.00;98559.50;4120444;28;20210;-49
2023/03/15 05:48:57;;;;;;;7.07;5.93;;;;;;;0.95;100.00;98571.47;4121635;28;20293;-49
2023/03/15 05:50:59;;;;;;;7.70;6.85;;;;;;;0.96;100.00;98579.38;4121616;28;20234;-49
2023/03/15 05:53:01;;;;;;;8.10;5.75;;;;;;;1.10;100.00;98586.59;4126245;28;20312;-50
2023/03/15 05:55:03;;;;;;;8.70;7.30;;;;;;;1.14;100.00;98587.88;4122044;28;20745;-49
2023/03/15 05:57:10;;;;;;;10.45;6.82;;;;;;;1.29;100.00;98588.66;4106787;28;20214;-49
2023/03/15 05:59:20;;;;;;;8.48;7.55;;;;;;;1.21;100.00;98588.78;4124496;28;20392;-49
2023/03/15 06:01:26;;;;;;;13.48;6.53;;;;;;;1.15;100.00;98594.91;4126582;28;20237;-50
2023/03/15 06:03:30;;;;;;;7.45;6.50;;;;;;;1.24;100.00;98593.81;4123298;28;20276;-49
2023/03/15 06:05:35;;;;;;;7.15;6.43;;;;;;;1.16;100.00;98596.63;4123750;28;20441;-49
2023/03/15 06:07:45;;;;;;;17.75;6.97;;;;;;;1.27;100.00;98593.41;4111250;28;20627;-49
2023/03/15 06:09:46;;;;;;;7.00;6.40;;;;;;;1.06;100.00;98596.06;4120703;28;20284;-48
2023/03/15 06:11:48;;;;;;;9.40;6.53;;;;;;;0.98;100.00;98598.88;4124809;28;20241;-48
2023/03/15 06:13:56;;;;;;;7.35;6.63;;;;;;;1.11;100.00;98604.41;4122884;28;20298;-48
2023/03/15 06:15:59;;;;;;;9.48;7.72;;;;;;;1.16;100.00;98612.78;4138978;28;20204;-48
2023/03/15 06:18:01;;;;;;;8.82;6.78;;;;;;;1.25;100.00;98606.25;4112638;28;20227;-47
2023/03/15 06:20:03;;;;;;;14.20;6.88;;;;;;;1.39;100.00;98615.31;4129057;28;20699;-48
2023/03/15 06:22:05;;;;;;;6.03;5.50;;;;;;;1.31;100.00;98610.88;4123697;28;20317;-48
2023/03/15 06:24:07;;;;;;;6.55;6.05;;;;;;;1.42;100.00;98626.53;4136842;28;20230;-47
2023/03/15 06:26:09;;;;;;;12.93;7.60;;;;;;;1.44;100.00;98626.34;4122303;28;20288;-48
2023/03/15 06:28:24;;;;;;;6.72;6.10;;;;;;;1.48;100.00;98615.00;4137763;28;20198;-47
2023/03/15 06:30:27;;;;;;;5.93;5.43;;;;;;;1.38;100.00;98627.97;4119607;28;20241;-48
2023/03/15 06:32:36;;;;;;;6.70;5.95;;;;;;;1.50;100.00;98631.84;4123238;28;20264;-47
2023/03/15 06:34:38;;;;;;;6.50;6.00;;;;;;;1.47;100.00;98626.81;4107421;28;20215;-48
2023/03/15 06:36:41;;;;;;;6.53;5.97;;;;;;;1.50;100.00;98631.00;4110263;28;20254;-49
2023/03/15 06:38:42;;;;;;;5.85;5.25;;;;;;;1.46;100.00;98624.31;4119415;28;20738;-49
2023/03/15 06:40:44;;;;;;;7.53;6.03;;;;;;;1.62;100.00;98630.28;4119299;28;20245;-48
2023/03/15 06:42:46;;;;;;;8.63;6.15;;;;;;;1.63;100.00;98626.59;4114516;28;20226;-47
2023/03/15 06:44:48;;;;;;;10.02;5.75;;;;;;;1.69;100.00;98635.78;4118604;28;20664;-47
2023/03/15 06:46:51;;;;;;;9.75;5.85;;;;;;;1.76;100.00;98642.91;4123076;28;20264;-48
2023/03/15 06:48:53;;;;;;;7.35;6.63;;;;;;;1.82;100.00;98644.00;4135455;28;20783;-47
2023/03/15 06:51:05;;;;;;;7.90;5.57;;;;;;;1.66;100.00;98637.00;4120759;28;20580;-47
2023/03/15 06:53:07;;;;;;;8.52;6.20;;;;;;;1.76;100.00;98631.28;4121188;28;20743;-48
2023/03/15 06:55:11;;;;;;;6.68;6.05;;;;;;;1.72;100.00;98633.53;4122003;28;20323;-47
2023/03/15 06:57:13;;;;;;;8.55;7.65;;;;;;;1.58;100.00;98630.88;4118823;28;20214;-47
2023/03/15 06:59:27;;;;;;;14.18;5.38;;;;;;;1.56;100.00;98638.31;4125116;28;20333;-48
2023/03/15 07:01:29;;;;;;;8.88;5.60;;;;;;;1.65;100.00;98634.47;4101469;28;20687;-48
2023/03/15 07:03:31;;;;;;;7.55;6.15;;;;;;;1.50;100.00;98639.09;4123852;28;20230;-47
2023/03/15 07:05:33;;;;;;;5.82;5.32;;;;;;;1.58;100.00;98634.41;4122139;28;20590;-47
2023/03/15 07:07:35;;;;;;;6.53;5.93;;;;;;;1.58;100.00;98638.97;4117717;28;20218;-47
2023/03/15 07:09:38;;;;;;;7.68;6.93;;;;;;;1.61;100.00;98639.41;4125872;28;20209;-48
2023/03/15 07:11:40;;;;;;;6.40;5.72;;;;;;;1.56;100.00;98647.25;4125558;28;20663;-47
2023/03/15 07:13:49;;;;;;;8.05;5.53;;;;;;;1.53;100.00;98636.84;4104361;28;20774;-47
2023/03/15 07:15:55;;;;;;;7.30;5.90;;;;;;;1.54;100.00;98625.03;4118783;28;20218;-49
2023/03/15 07:17:57;;;;;;;8.52;7.07;;;;;;;1.53;100.00;98620.66;4135775;28;20316;-47
2023/03/15 07:19:59;;;;;;;10.85;6.63;;;;;;;1.61;100.00;98631.31;4121535;28;20206;-48
2023/03/15 07:22:03;;;;;;;6.32;5.75;;;;;;;1.77;100.00;98635.66;4126192;28;20201;-49
2023/03/15 07:24:05;;;;;;;6.85;5.93;;;;;;;1.70;100.00;98634.75;4119541;28;20234;-48
2023/03/15 07:26:07;;;;;;;7.50;6.80;;;;;;;1.72;100.00;98644.31;4132494;28;20209;-48
2023/03/15 07:28:09;;;;;;;9.63;7.18;;;;;;;1.76;100.00;98645.63;4131133;28;20213;-48
2023/03/15 07:30:11;;;;;;;7.68;6.63;;;;;;;1.85;100.00;98647.16;4123052;28;20245;-48
2023/03/15 07:32:13;;;;;;;8.32;7.53;;;;;;;1.84;100.00;98652.72;4119238;28;20240;-48
2023/03/15 07:34:15;;;;;;;7.70;7.00;;;;;;;1.80;100.00;98654.16;4133937;28;20206;-48
2023/03/15 07:36:24;;;;;;;8.43;7.72;;;;;;;1.77;100.00;98655.38;4120200;28;20205;-47
2023/03/15 07:38:29;;;;;;;6.72;6.07;;;;;;;1.71;100.00;98657.97;4121917;28;20226;-48
2023/03/15 07:40:40;;;;;;;6.18;5.63;;;;;;;1.70;100.00;98646.38;4137114;28;20205;-49
2023/03/15 07:43:16;;;;;;;5.82;5.30;;;;;;;1.71;100.00;98650.75;4119154;28;20299;-49
2023/03/15 07:45:38;;;;;;;6.32;5.82;;;;;;;1.65;100.00;98651.50;4122632;28;20616;-48
2023/03/15 07:48:08;;;;;;;7.25;5.68;;;;;;;1.76;100.00;98648.31;4122930;28;20733;-48
2023/03/15 07:50:46;;;;;;;6.63;5.93;;;;;;;1.71;100.00;98650.75;4135837;28;20711;-48
2023/03/15 07:53:24;;;;;;;8.60;6.75;;;;;;;1.84;100.00;98639.25;4118344;28;20757;-48
2023/03/15 07:55:43;;;;;;;7.47;6.68;;;;;;;1.80;100.00;98644.19;4137605;28;20225;-49
2023/03/15 07:58:12;;;;;;;6.10;5.43;;;;;;;1.90;100.00;98647.41;4120712;28;20217;-50
2023/03/15 08:00:21;;;;;;;6.15;5.53;;;;;;;1.80;100.00;98651.47;4118526;28;20202;-49
2023/03/15 08:02:25;;;;;;;6.95;6.30;;;;;;;1.82;100.00;98655.59;4122408;28;20715;-49
2023/03/15 08:04:30;;;;;;;8.52;7.05;;;;;;;1.88;100.00;98646.75;4123944;28;20676;-48
2023/03/15 08:06:32;;;;;;;6.97;6.30;;;;;;;1.95;100.00;98653.03;4122523;28;20300;-48
2023/03/15 08:08:34;;;;;;;8.70;7.68;;;;;;;1.87;100.00;98644.28;4121276;28;20648;-48
2023/03/15 08:10:35;;;;;;;6.68;6.07;;;;;;;1.89;100.00;98648.41;4136117;28;20293;-48
2023/03/15 08:12:39;;;;;;;6.45;5.75;;;;;;;1.90;100.00;98646.56;4118124;28;20794;-48
2023/03/15 08:14:43;;;;;;;7.30;6.60;;;;;;;1.98;100.00;98646.44;4122795;28;20241;-48
2023/03/15 08:16:52;;;;;;;7.45;6.65;;;;;;;2.01;100.00;98646.88;4099284;28;20298;-48
2023/03/15 08:18:54;;;;;;;7.13;6.35;;;;;;;2.06;100.00;98652.53;4123081;28;20268;-48
2023/03/15 08:20:58;;;;;;;8.90;6.30;;;;;;;1.96;100.00;98660.13;4121935;28;20206;-48
2023/03/15 08:23:15;;;;;;;6.05;5.40;;;;;;;1.99;100.00;98653.50;4119288;28;20679;-49
2023/03/15 08:25:27;;;;;;;9.93;5.57;;;;;;;1.98;100.00;98671.56;4118844;28;20233;-48
2023/03/15 08:27:51;;;;;;;5.82;5.03;;;;;;;2.04;100.00;98670.81;4119967;28;20214;-47
2023/03/15 08:29:53;;;;;;;4.97;4.40;;;;;;;2.12;100.00;98670.66;4132341;28;20876;-47
2023/03/15 08:32:07;;;;;;;6.43;5.65;;;;;;;2.08;100.00;98676.66;4117245;28;20222;-48
2023/03/15 08:34:10;;;;;;;6.13;5.53;;;;;;;2.05;100.00;98674.31;4111527;28;20294;-48
2023/03/15 08:36:13;;;;;;;13.02;5.25;;;;;;;1.97;100.00;98683.38;4125090;28;20635;-48
2023/03/15 08:38:15;;;;;;;6.70;5.45;;;;;;;1.98;100.00;98674.25;4112444;28;20661;-49
2023/03/15 08:40:25;;;;;;;6.03;4.70;;;;;;;1.95;100.00;98685.41;4125125;28;20746;-48
2023/03/15 08:42:29;;;;;;;5.95;5.35;;;;;;;1.95;100.00;98690.81;4118472;28;20238;-48
2023/03/15 08:44:35;;;;;;;9.30;5.03;;;;;;;2.01;100.00;98694.63;4119171;28;20205;-49
2023/03/15 08:46:37;;;;;;;9.55;6.28;;;;;;;1.92;100.00;98691.22;4101903;28;20253;-48
2023/03/15 08:48:39;;;;;;;8.90;6.72;;;;;;;1.98;100.00;98701.25;4136167;28;20263;-48
2023/03/15 08:50:41;;;;;;;8.38;5.70;;;;;;;1.97;100.00;98704.97;4125305;28;20735;-49
2023/03/15 08:52:56;;;;;;;8.18;7.38;;;;;;;2.01;100.00;98700.84;4118753;28;20229;-48
2023/03/15 08:54:58;;;;;;;8.60;6.07;;;;;;;1.96;100.00;98713.25;4118142;28;20291;-47
2023/03/15 08:57:00;;;;;;;7.78;6.70;;;;;;;1.82;100.00;98706.84;4123651;28;20241;-48
2023/03/15 08:59:12;;;;;;;6.38;5.72;;;;;;;1.93;100.00;98714.47;4135597;28;20244;-49
2023/03/15 09:01:35;;;;;;;8.15;6.35;;;;;;;1.99;100.00;98713.69;4120588;28;20214;-48
2023/03/15 09:04:00;;;;;;;8.65;7.07;;;;;;;1.98;100.00;98714.72;4117608;28;20735;-48
2023/03/15 09:06:06;;;;;;;6.57;5.88;;;;;;;2.09;100.00;98714.25;4121172;28;20206;-47
2023/03/15 09:08:08;;;;;;;11.65;7.30;;;;;;;2.21;100.00;98720.78;4104300;28;20670;-48
2023/03/15 09:10:13;;;;;;;7.95;7.15;;;;;;;2.33;100.00;98721.94;4134987;28;20290;-48
2023/03/15 09:12:28;;;;;;;10.60;7.57;;;;;;;2.44;100.00;98724.13;4118921;28;20221;-49
2023/03/15 09:14:38;;;;;;;11.40;7.35;;;;;;;2.56;100.00;98728.00;4140536;28;20722;-48
2023/03/15 09:16:44;;;;;;;9.30;8.13;;;;;;;2.61;100.00;98733.63;4126467;28;20213;-48
2023/03/15 09:18:58;;;;;;;8.88;7.03;;;;;;;2.62;100.00;98731.75;4121617;28;20254;-48
2023/03/15 09:21:04;;;;;;;8.10;7.18;;;;;;;2.63;100.00;98738.84;4104563;28;20206;-47
2023/03/15 09:23:07;;;;;;;7.43;6.38;;;;;;;2.70;100.00;98742.41;4126716;28;20297;-49
2023/03/15 09:25:31;;;;;;;8.52;7.82;;;;;;;2.64;100.00;98741.34;4105505;28;20642;-48
2023/03/15 09:27:48;;;;;;;8.98;8.15;;;;;;;2.64;100.00;98738.66;4122544;28;20210;-48
2023/03/15 09:30:15;;;;;;;16.85;7.78;;;;;;;2.62;100.00;98737.16;4123797;28;20213;-48
2023/03/15 09:32:19;;;;;;;9.25;8.45;;;;;;;2.80;100.00;98743.75;4112124;28;20309;-48
2023/03/15 09:35:13;;;;;;;14.45;9.50;;;;;;;2.99;100.00;98745.78;4121713;28;20203;-48
2023/03/15 09:37:37;;;;;;;8.45;7.65;;;;;;;2.90;100.00;98746.97;4123255;28;20569;-48
2023/03/15 09:39:57;;;;;;;8.10;7.35;;;;;;;2.93;100.00;98762.78;4122112;28;20221;-47
2023/03/15 09:42:23;;;;;;;8.50;7.68;;;;;;;2.95;100.00;98755.28;4123490;28;20644;-48
2023/03/15 09:44:41;;;;;;;7.90;7.15;;;;;;;2.97;100.00;98764.06;4110527;28;20943;-47
2023/03/15 09:47:05;;;;;;;8.95;8.10;;;;;;;3.10;100.00;98764.16;4126588;28;20643;-48